Terminal Aerodrome Forecast
Issued by NWS

Current Version | Previous Version | Text Only | Print | Product List | Glossary On
Versions: 1 2 3 4 5 6 7 8 9 10 11 12 13 14 15 16 17
203
FTUS43 KGRR 191721
TAFLAN
TAF
KLAN 191721Z 1918/2018 22015KT P6SM BKN250
     FM192100 22013KT P6SM SCT250 WS020/25040KT
     FM192300 21013KT P6SM SCT250 WS020/24050KT
     FM200800 24016KT P6SM SCT250 WS020/26050KT
     FM201100 23013KT P6SM OVC015
     FM201500 23008KT 4SM BR OVC007=

USA.gov is the U.S. government's official web portal to all federal, state and local government web resources and services.